LIME/BGY METAR and TAF weather

Enter ICAO airport designator
Station Type Date Time Source
LIME METAR 2020/01/23 15:20 UTC NOAA

LIME 231520Z 19005KT 170V230 CAVOK 08/M01 Q1030 NOSIG


Station Type Date Time Source
LIME Decoded METAR 2020/01/23 15:20 UTC NOAA

Bergamo / Orio Al Serio, Italy (LIME) 45-40N 009-42E 237M
Jan 23, 2020 - 10:20 AM EST / 2020.01.23 1520 UTC
Wind: from the S (190 degrees) at 6 MPH (5 KT) (direction variable):0
Visibility: greater than 7 mile(s):0
Temperature: 46 F (8 C)
Dew Point: 30 F (-1 C)
Relative Humidity: 52%
Pressure (altimeter): 30.42 in. Hg (1030 hPa)
ob: LIME 231520Z 19005KT 170V230 CAVOK 08/M01 Q1030 NOSIG
cycle: 15

Station Type Date Time Source
LIME TAF 2020/01/23 12:21 UTC NOAA

TAF LIME 231100Z 2312/2412 VRB05KT CAVOK

Example: see airport list